Terminal Aerodrome Forecast
Issued by NWS Charleston, WV

Current Version | Previous Version | Graphics & Text | Print | Product List | Glossary Off
Versions: 1 2 3 4 5 6 7 8 9 10 11 12 13 14 15 16 17 18 19 20 21 22 23 24 25 26 27 28 29 30

000
FTUS41 KRLX 022300
TAFPKB
TAF
KPKB 022329Z 0300/0324 27005KT P6SM BKN060
     FM030300 VRB03KT P6SM SCT250
     FM030600 00000KT P6SM BKN025
     FM030900 00000KT 5SM BR SKC
     FM031400 00000KT P6SM SKC
     FM031600 26004KT P6SM SCT030
     FM031700 25004KT P6SM SCT035=

USA.gov is the U.S. government's official web portal to all federal, state and local government web resources and services.